Verona, WI (53593)

2:07 PM CDT on August 27, 2016 (GMT -0500)
Verona | | Change Station

Elev 984 ft 42.99 °N, 89.56 °W | Updated 3 seconds ago

Overcast
Overcast
73.4 °F
Feels Like 73 °F
N
0.0
Wind Variable Wind from NW

Today
High -- | Low -- °F
--% Chance of Precip.
Yesterday
High -- | Low -- °F
Precip. -- in
Pressure 30.04 in
Visibility 5.0 miles
Clouds Overcast 400 ft
Heat Index 73 °F
Dew Point 68 °F
Humidity 83%
Rainfall 0.97 in
Snow Depth Not available.
6:17 AM 7:40 PM
Waning Crescent, 22% visible
METAR KC29 271855Z AUTO 11004KT 5SM OVC004 21/20 A3004 RMK AO1 T02060204
Pressure 30.04 in
Visibility 5.0 miles
Clouds Overcast 400 ft
Heat Index 73 °F
Dew Point 68 °F
Humidity 83%
Rainfall 0.97 in
Snow Depth Not available.
6:17 AM 7:40 PM
Waning Crescent, 22% visible
METAR KC29 271855Z AUTO 11004KT 5SM OVC004 21/20 A3004 RMK AO1 T02060204

10-Day Weather Forecast

Almanac

Astronomy

Aug. 27, 2016 Rise Set
Actual Time
Civil Twilight
Nautical Twilight
Astronomical Twilight
Moon
Length of Visible Light
Length of Day
Tomorrow will be .
, % of the Moon is Illuminated

Today's Extremes

State Highs State Lows

Community

WunderPhotos

Upload Photos

1,935,399 photos uploaded!

WunderBlog® & News

Nearby

Air Quality

  Air Quality AQ Index Pollutant
Not available.

Snow Depth

Station Depth Elevation

Earthquake Activity

City Distance Mag. Time & Date
Minimum magnitude displayed is 2.5.

Coastal Water Temperatures

Place Temperature

Stations

Nearby Weather Stations

Station Location Temp. Windchill Dew Point Humidity Wind Precip. Elev Updated Type
                   

Watches & Warnings

There are currently no watches in effect.